Time;durP1;ratioP1;P1;durP2;ratioP2;P2;SDS_P1;SDS_P2;PMS_P1;PMS_P2;Temp;Humidity;BMP_temperature;BMP_pressure;BME280_temperature;BME280_humidity;BME280_pressure;Samples;Min_cycle;Max_cycle;Signal;HPM_P1;HPM_P2
2021/12/09 00:00:52;;;;;;;32.63;14.68;;;;;;;2.02;100.00;96546.66;4911361;28;20478;-56
2021/12/09 00:03:18;;;;;;;33.72;14.88;;;;;;;2.16;100.00;96547.94;4910756;29;20035;-56
2021/12/09 00:05:45;;;;;;;43.35;16.30;;;;;;;1.79;100.00;96560.19;4910535;29;20044;-57
2021/12/09 00:08:11;;;;;;;38.25;15.65;;;;;;;1.73;100.00;96566.34;4908732;29;20054;-56
2021/12/09 00:10:36;;;;;;;38.50;16.02;;;;;;;2.03;100.00;96556.03;4909541;29;20042;-57
2021/12/09 00:13:04;;;;;;;34.65;15.68;;;;;;;2.10;100.00;96554.97;4910172;29;20063;-56
2021/12/09 00:15:29;;;;;;;36.13;15.32;;;;;;;1.99;100.00;96541.59;4910254;28;20039;-56
2021/12/09 00:17:55;;;;;;;40.22;15.82;;;;;;;1.47;100.00;96546.53;4911235;29;20028;-58
2021/12/09 00:20:20;;;;;;;38.67;15.60;;;;;;;1.91;100.00;96543.53;4916537;29;20043;-56
2021/12/09 00:22:46;;;;;;;37.92;14.80;;;;;;;1.86;100.00;96553.13;4913719;29;20038;-55
2021/12/09 00:25:11;;;;;;;39.63;15.52;;;;;;;1.73;100.00;96550.91;4909590;28;20612;-55
2021/12/09 00:27:37;;;;;;;36.08;14.85;;;;;;;1.56;100.00;96553.13;4913013;29;20065;-58
2021/12/09 00:30:05;;;;;;;33.17;15.18;;;;;;;1.73;100.00;96561.19;4911748;29;20090;-57
2021/12/09 00:32:30;;;;;;;39.80;15.23;;;;;;;1.83;100.00;96571.22;4908400;29;20123;-56
2021/12/09 00:34:56;;;;;;;39.50;15.43;;;;;;;1.70;100.00;96565.59;4909222;29;20027;-56
2021/12/09 00:37:28;;;;;;;53.22;15.57;;;;;;;1.65;100.00;96563.13;4909174;29;20051;-56
2021/12/09 00:39:54;;;;;;;31.48;12.90;;;;;;;1.93;100.00;96549.50;4913071;29;20030;-56
2021/12/09 00:42:22;;;;;;;31.77;13.93;;;;;;;2.06;100.00;96549.94;4909860;29;20690;-56
2021/12/09 00:44:48;;;;;;;31.08;13.73;;;;;;;2.04;100.00;96549.16;4910554;29;20059;-57
2021/12/09 00:47:13;;;;;;;35.65;14.32;;;;;;;1.99;100.00;96548.47;4910278;28;20048;-54
2021/12/09 00:49:38;;;;;;;33.42;13.85;;;;;;;1.94;100.00;96543.44;4911598;29;20034;-57
2021/12/09 00:52:04;;;;;;;28.65;13.10;;;;;;;1.93;100.00;96534.06;4909952;29;20616;-57
2021/12/09 00:54:30;;;;;;;33.70;13.55;;;;;;;1.96;100.00;96540.84;4910871;29;20059;-56
2021/12/09 00:56:56;;;;;;;32.90;13.20;;;;;;;2.01;100.00;96549.25;4918214;29;20040;-56
2021/12/09 00:59:21;;;;;;;32.67;12.65;;;;;;;1.88;100.00;96554.75;4913125;29;20757;-57
2021/12/09 01:01:47;;;;;;;33.90;13.02;;;;;;;1.96;100.00;96556.28;4912593;29;20140;-57
2021/12/09 01:04:12;;;;;;;30.65;12.88;;;;;;;1.79;100.00;96559.34;4909944;29;20044;-57
2021/12/09 01:06:38;;;;;;;29.17;12.63;;;;;;;1.98;100.00;96552.75;4909310;28;20155;-57
2021/12/09 01:09:04;;;;;;;31.55;12.43;;;;;;;1.99;100.00;96562.16;4909194;29;20482;-57
2021/12/09 01:11:30;;;;;;;30.80;13.07;;;;;;;1.81;100.00;96571.25;4910638;28;20046;-57
2021/12/09 01:13:56;;;;;;;32.95;12.77;;;;;;;1.96;100.00;96577.66;4915030;29;20032;-57
2021/12/09 01:16:21;;;;;;;32.28;13.18;;;;;;;1.84;100.00;96604.59;4910637;29;20573;-56
2021/12/09 01:18:47;;;;;;;29.38;13.38;;;;;;;1.74;100.00;96609.13;4910644;29;20796;-57
2021/12/09 01:21:13;;;;;;;38.75;14.23;;;;;;;1.97;100.00;96610.22;4909576;29;20040;-57
2021/12/09 01:23:40;;;;;;;39.93;15.53;;;;;;;2.04;100.00;96600.59;4910642;29;20024;-58
2021/12/09 01:26:06;;;;;;;33.72;13.57;;;;;;;1.58;100.00;96599.34;4908917;28;20036;-56
2021/12/09 01:28:41;;;;;;;36.38;14.13;;;;;;;1.77;100.00;96602.25;4910467;29;20663;-56
2021/12/09 01:31:07;;;;;;;33.90;14.27;;;;;;;1.52;100.00;96602.91;4910613;28;20036;-57
2021/12/09 01:33:34;;;;;;;40.75;15.80;;;;;;;1.72;100.00;96605.78;4908732;29;20801;-57
2021/12/09 01:36:00;;;;;;;37.65;15.23;;;;;;;1.80;100.00;96602.16;4912248;29;20099;-56
2021/12/09 01:38:29;;;;;;;37.97;14.98;;;;;;;2.07;100.00;96609.06;4913216;29;20024;-56
2021/12/09 01:40:55;;;;;;;38.15;15.35;;;;;;;2.15;100.00;96610.56;4914111;28;20122;-57
2021/12/09 01:43:21;;;;;;;34.95;14.88;;;;;;;2.14;100.00;96607.16;4914004;29;20062;-57
2021/12/09 01:45:46;;;;;;;36.75;15.02;;;;;;;2.04;100.00;96622.03;4911403;28;20036;-56
2021/12/09 01:48:12;;;;;;;33.97;14.30;;;;;;;2.05;100.00;96625.44;4913336;29;20042;-57
2021/12/09 01:50:37;;;;;;;30.45;13.75;;;;;;;2.05;100.00;96626.25;4914401;28;20047;-56
2021/12/09 01:53:03;;;;;;;35.13;14.85;;;;;;;1.98;100.00;96619.63;4912731;29;20124;-56
2021/12/09 01:55:30;;;;;;;33.58;13.93;;;;;;;2.08;100.00;96618.47;4912759;29;20064;-56
2021/12/09 01:57:56;;;;;;;37.83;15.55;;;;;;;2.23;100.00;96621.47;4910430;29;20035;-56
2021/12/09 02:00:26;;;;;;;35.83;14.93;;;;;;;2.10;100.00;96615.84;4915867;29;20028;-56
2021/12/09 02:02:52;;;;;;;42.08;15.35;;;;;;;2.02;100.00;96618.66;4913691;29;20035;-57
2021/12/09 02:05:18;;;;;;;42.30;15.57;;;;;;;1.89;100.00;96617.31;4912175;29;20031;-57
2021/12/09 02:07:44;;;;;;;43.72;15.23;;;;;;;1.81;100.00;96608.97;4913665;29;20106;-56
2021/12/09 02:10:13;;;;;;;34.20;14.43;;;;;;;1.90;100.00;96608.72;4912830;29;20055;-56
2021/12/09 02:12:39;;;;;;;45.17;15.00;;;;;;;1.99;100.00;96603.31;4911513;29;20034;-56
2021/12/09 02:15:06;;;;;;;36.17;15.02;;;;;;;1.98;100.00;96611.91;4912822;29;20046;-57
2021/12/09 02:17:32;;;;;;;43.13;14.75;;;;;;;2.15;100.00;96615.72;4911747;29;20427;-57
2021/12/09 02:20:00;;;;;;;38.30;14.85;;;;;;;2.20;100.00;96616.41;4912439;29;20171;-57
2021/12/09 02:22:28;;;;;;;35.55;14.43;;;;;;;1.98;100.00;96623.91;4910958;29;20054;-58
2021/12/09 02:24:55;;;;;;;39.63;15.20;;;;;;;1.97;100.00;96629.94;4910342;29;20046;-57
2021/12/09 02:27:22;;;;;;;39.22;15.57;;;;;;;1.93;100.00;96624.91;4912037;28;20047;-57
2021/12/09 02:29:48;;;;;;;36.72;14.57;;;;;;;1.79;100.00;96626.19;4912129;29;20200;-57
2021/12/09 02:32:13;;;;;;;41.22;14.40;;;;;;;1.66;100.00;96618.81;4908918;29;20139;-56
2021/12/09 02:34:38;;;;;;;37.53;15.30;;;;;;;1.96;100.00;96590.53;4913068;29;20027;-56
2021/12/09 02:37:04;;;;;;;35.00;14.75;;;;;;;1.99;100.00;96592.19;4911514;29;20066;-56
2021/12/09 02:39:30;;;;;;;38.38;14.77;;;;;;;2.06;100.00;96597.09;4914338;29;20151;-57
2021/12/09 02:41:56;;;;;;;38.70;14.52;;;;;;;1.97;100.00;96605.09;4911254;29;20067;-56
2021/12/09 02:44:23;;;;;;;35.15;14.52;;;;;;;2.14;100.00;96608.91;4910638;29;20035;-58
2021/12/09 02:46:52;;;;;;;39.17;14.80;;;;;;;1.83;100.00;96597.75;4911187;29;20781;-56
2021/12/09 02:49:20;;;;;;;47.20;14.85;;;;;;;1.97;100.00;96599.94;4912199;29;20036;-58
2021/12/09 02:51:47;;;;;;;33.53;14.38;;;;;;;2.06;100.00;96599.66;4912102;28;20047;-56
2021/12/09 02:54:16;;;;;;;43.40;14.18;;;;;;;1.87;100.00;96608.78;4913450;29;20074;-59
2021/12/09 02:56:44;;;;;;;35.97;14.00;;;;;;;1.91;100.00;96620.66;4908738;29;20059;-56
2021/12/09 02:59:10;;;;;;;38.13;14.32;;;;;;;1.98;100.00;96632.47;4910691;29;20028;-56
2021/12/09 03:01:50;;;;;;;34.67;14.70;;;;;;;2.03;100.00;96629.78;4911640;29;20040;-56
2021/12/09 03:04:16;;;;;;;33.75;13.85;;;;;;;2.00;100.00;96615.25;4911829;29;20036;-56
2021/12/09 03:06:43;;;;;;;33.63;13.90;;;;;;;2.24;100.00;96623.16;4910128;29;20071;-56
2021/12/09 03:09:17;;;;;;;33.13;13.88;;;;;;;2.12;100.00;96624.38;4911827;29;20036;-57
2021/12/09 03:11:44;;;;;;;41.20;14.90;;;;;;;2.03;100.00;96622.91;4911197;29;20051;-56
2021/12/09 03:14:10;;;;;;;42.95;14.60;;;;;;;2.10;100.00;96611.53;4911924;29;20106;-58
2021/12/09 03:16:38;;;;;;;38.13;14.43;;;;;;;2.06;100.00;96602.25;4910583;28;21081;-56
2021/12/09 03:19:06;;;;;;;39.20;14.85;;;;;;;1.76;100.00;96610.84;4912508;29;20126;-58
2021/12/09 03:21:43;;;;;;;38.53;14.85;;;;;;;2.13;100.00;96608.03;4908952;29;20119;-56
2021/12/09 03:24:12;;;;;;;46.97;14.90;;;;;;;1.97;100.00;96617.94;4909748;29;20123;-58
2021/12/09 03:26:42;;;;;;;38.95;14.98;;;;;;;2.10;100.00;96616.69;4909494;29;20064;-56
2021/12/09 03:29:10;;;;;;;37.20;14.98;;;;;;;2.12;100.00;96630.34;4911408;29;20062;-56
2021/12/09 03:31:38;;;;;;;35.03;14.55;;;;;;;2.03;100.00;96634.94;4910301;28;20718;-56
2021/12/09 03:34:04;;;;;;;39.35;14.70;;;;;;;1.85;100.00;96631.13;4910396;29;20088;-56
2021/12/09 03:36:29;;;;;;;41.85;15.05;;;;;;;1.99;100.00;96629.03;4919545;29;20043;-57
2021/12/09 03:38:57;;;;;;;38.97;15.43;;;;;;;2.31;100.00;96627.22;4911244;29;20614;-56
2021/12/09 03:41:22;;;;;;;35.95;15.00;;;;;;;1.92;100.00;96627.50;4912078;28;20119;-56
2021/12/09 03:43:48;;;;;;;40.75;15.57;;;;;;;2.11;100.00;96623.53;4910336;29;20036;-56
2021/12/09 03:46:14;;;;;;;37.42;15.27;;;;;;;2.10;100.00;96632.13;4909941;28;20040;-58
2021/12/09 03:48:39;;;;;;;39.85;15.25;;;;;;;1.89;100.00;96630.16;4916856;29;20028;-57
2021/12/09 03:51:04;;;;;;;38.22;14.48;;;;;;;2.02;100.00;96631.53;4909591;28;20139;-56
2021/12/09 03:53:30;;;;;;;37.42;15.38;;;;;;;2.19;100.00;96625.00;4913439;29;20599;-56
2021/12/09 03:55:55;;;;;;;37.25;15.90;;;;;;;2.12;100.00;96622.63;4911048;29;20036;-56
2021/12/09 03:58:21;;;;;;;47.83;16.65;;;;;;;1.88;100.00;96620.78;4910593;29;20032;-56
2021/12/09 04:00:47;;;;;;;53.70;17.23;;;;;;;1.80;100.00;96608.16;4909502;29;20043;-56
2021/12/09 04:03:13;;;;;;;40.85;15.15;;;;;;;2.06;100.00;96604.81;4910110;29;20127;-56
2021/12/09 04:05:38;;;;;;;40.13;15.30;;;;;;;2.25;100.00;96604.25;4910618;28;20054;-57
2021/12/09 04:08:04;;;;;;;47.72;15.88;;;;;;;2.07;100.00;96611.63;4911976;29;20095;-56
2021/12/09 04:10:31;;;;;;;37.03;14.95;;;;;;;1.93;100.00;96614.63;4909804;28;20035;-58
2021/12/09 04:12:58;;;;;;;42.63;14.88;;;;;;;2.14;100.00;96621.75;4926048;28;20032;-56
2021/12/09 04:15:23;;;;;;;41.92;15.73;;;;;;;2.16;100.00;96627.69;4907330;29;20713;-56
2021/12/09 04:17:49;;;;;;;41.70;16.00;;;;;;;1.89;100.00;96632.72;4911837;29;20105;-56
2021/12/09 04:20:14;;;;;;;39.65;15.80;;;;;;;2.09;100.00;96625.28;4910578;29;20031;-56
2021/12/09 04:22:43;;;;;;;40.47;15.75;;;;;;;1.93;100.00;96634.34;4908160;29;20027;-56
2021/12/09 04:25:08;;;;;;;44.08;16.15;;;;;;;2.09;100.00;96645.84;4910011;29;21118;-56
2021/12/09 04:27:33;;;;;;;41.47;16.05;;;;;;;2.07;100.00;96663.06;4909692;29;20502;-56
2021/12/09 04:29:59;;;;;;;41.03;15.18;;;;;;;2.05;100.00;96664.84;4915874;29;20083;-57
2021/12/09 04:32:25;;;;;;;42.20;15.70;;;;;;;2.00;100.00;96671.84;4911207;29;20139;-56
2021/12/09 04:34:53;;;;;;;45.75;15.98;;;;;;;1.94;100.00;96672.03;4925189;29;20038;-57
2021/12/09 04:37:19;;;;;;;43.65;15.63;;;;;;;1.76;100.00;96672.53;4910004;28;20058;-57
2021/12/09 04:39:45;;;;;;;47.15;16.23;;;;;;;2.01;100.00;96673.53;4909105;29;20036;-57
2021/12/09 04:42:11;;;;;;;43.67;15.20;;;;;;;2.21;100.00;96674.72;4909732;29;20043;-57
2021/12/09 04:44:36;;;;;;;45.25;16.10;;;;;;;1.88;100.00;96667.06;4910876;29;20119;-56
2021/12/09 04:47:02;;;;;;;40.25;15.90;;;;;;;2.04;100.00;96675.16;4909361;29;20473;-57
2021/12/09 04:49:27;;;;;;;46.13;16.35;;;;;;;1.92;100.00;96677.19;4910925;29;20099;-56
2021/12/09 04:51:53;;;;;;;46.42;17.35;;;;;;;1.99;100.00;96688.16;4911345;28;20695;-55
2021/12/09 04:54:19;;;;;;;39.70;15.30;;;;;;;2.11;100.00;96687.84;4911978;29;20027;-56
2021/12/09 04:56:44;;;;;;;43.25;16.60;;;;;;;1.83;100.00;96690.31;4911097;29;20036;-57
2021/12/09 04:59:10;;;;;;;43.55;16.95;;;;;;;2.03;100.00;96686.34;4911929;29;20387;-55
2021/12/09 05:01:36;;;;;;;51.25;17.73;;;;;;;2.18;100.00;96691.06;4910219;29;20072;-57
2021/12/09 05:04:02;;;;;;;45.80;17.30;;;;;;;2.12;100.00;96686.94;4909032;29;20028;-56
2021/12/09 05:06:29;;;;;;;48.72;18.00;;;;;;;2.21;100.00;96690.16;4908176;28;20044;-55
2021/12/09 05:08:55;;;;;;;51.95;18.77;;;;;;;2.16;100.00;96692.84;4917559;29;20024;-57
2021/12/09 05:11:47;;;;;;;46.95;18.10;;;;;;;2.14;100.00;96683.50;4913428;29;20048;-57
2021/12/09 05:14:18;;;;;;;55.97;19.02;;;;;;;1.93;100.00;96685.78;4915466;29;20035;-56
2021/12/09 05:16:44;;;;;;;52.33;19.15;;;;;;;2.13;100.00;96692.91;4913503;28;20044;-56
2021/12/09 05:19:10;;;;;;;53.33;19.15;;;;;;;2.19;100.00;96690.19;4913755;29;20184;-56
2021/12/09 05:21:38;;;;;;;48.53;19.05;;;;;;;2.25;100.00;96690.00;4913899;29;20127;-56
2021/12/09 05:24:10;;;;;;;50.10;18.92;;;;;;;1.98;100.00;96691.63;4911694;29;20043;-58
2021/12/09 05:26:50;;;;;;;54.30;17.40;;;;;;;1.68;100.00;96681.28;4921696;28;20099;-56
2021/12/09 05:29:17;;;;;;;53.88;17.42;;;;;;;1.75;100.00;96692.25;4913107;29;20043;-56
2021/12/09 05:34:28;;;;;;;49.80;17.90;;;;;;;1.92;100.00;96709.78;4915779;29;20042;-57
2021/12/09 05:36:53;;;;;;;46.75;16.73;;;;;;;2.17;100.00;96719.38;4912857;28;20103;-57
2021/12/09 05:39:19;;;;;;;44.67;16.75;;;;;;;2.13;100.00;96718.63;4912576;29;20044;-56
2021/12/09 05:41:45;;;;;;;50.78;19.08;;;;;;;2.07;100.00;96724.78;4914277;28;20115;-57
2021/12/09 05:44:13;;;;;;;53.20;18.15;;;;;;;2.04;100.00;96708.59;4913114;29;20490;-57
2021/12/09 05:46:42;;;;;;;50.47;16.35;;;;;;;2.09;100.00;96707.59;4910879;28;20044;-56
2021/12/09 05:49:08;;;;;;;49.00;17.50;;;;;;;2.09;100.00;96702.44;4914126;29;20046;-56
2021/12/09 05:51:34;;;;;;;74.68;18.13;;;;;;;1.96;100.00;96695.13;4913517;29;20550;-56
2021/12/09 05:53:59;;;;;;;57.97;18.20;;;;;;;2.23;100.00;96709.78;4913376;29;20199;-56
2021/12/09 05:56:25;;;;;;;57.10;18.35;;;;;;;1.97;100.00;96713.09;4911935;29;20040;-56
2021/12/09 05:58:50;;;;;;;51.67;18.27;;;;;;;1.95;100.00;96717.44;4913945;29;20067;-57
2021/12/09 06:01:16;;;;;;;46.47;18.50;;;;;;;2.21;100.00;96710.72;4912265;28;20052;-57
2021/12/09 06:03:42;;;;;;;59.55;17.60;;;;;;;1.97;100.00;96702.81;4915252;29;20024;-59
2021/12/09 06:06:07;;;;;;;50.95;18.13;;;;;;;2.02;100.00;96690.66;4915563;29;20130;-58
2021/12/09 06:08:36;;;;;;;51.70;18.20;;;;;;;2.14;100.00;96688.63;4916175;29;20126;-57
2021/12/09 06:11:03;;;;;;;59.50;17.38;;;;;;;2.07;100.00;96691.34;4915856;29;20528;-57
2021/12/09 06:13:30;;;;;;;54.33;18.80;;;;;;;2.19;100.00;96697.03;4917476;29;20043;-56
2021/12/09 06:15:56;;;;;;;63.28;17.58;;;;;;;2.16;100.00;96692.84;4915892;29;20056;-59
2021/12/09 06:18:21;;;;;;;53.17;18.88;;;;;;;2.25;100.00;96684.00;4915607;29;20390;-56
2021/12/09 06:20:47;;;;;;;46.30;17.23;;;;;;;2.17;100.00;96683.38;4915439;29;20036;-56
2021/12/09 06:23:12;;;;;;;51.80;16.92;;;;;;;2.05;100.00;96689.72;4917015;29;20035;-57
2021/12/09 06:25:37;;;;;;;50.20;16.80;;;;;;;1.94;100.00;96700.31;4916822;29;20055;-56
2021/12/09 06:28:03;;;;;;;47.05;16.88;;;;;;;1.97;100.00;96705.38;4916675;29;20058;-56
2021/12/09 06:30:29;;;;;;;5.43;2.35;;;;;;;4.07;100.00;96722.00;4914229;29;20091;-56
2021/12/09 06:32:54;;;;;;;27.08;6.55;;;;;;;4.24;100.00;96717.06;4916203;29;20039;-55
2021/12/09 06:35:20;;;;;;;30.45;8.50;;;;;;;6.04;100.00;96729.81;4917480;28;20102;-57
2021/12/09 06:37:48;;;;;;;46.15;15.70;;;;;;;3.30;100.00;96730.59;4915859;29;20020;-56
2021/12/09 06:40:17;;;;;;;42.00;14.88;;;;;;;2.74;100.00;96746.94;4915292;29;20040;-56
2021/12/09 06:42:44;;;;;;;39.50;15.43;;;;;;;2.44;100.00;96748.66;4914393;29;20019;-55
2021/12/09 06:45:12;;;;;;;42.42;14.93;;;;;;;2.46;100.00;96752.88;4914965;29;20560;-56
2021/12/09 06:47:39;;;;;;;60.83;16.13;;;;;;;2.68;100.00;96757.38;4913142;29;20048;-55
2021/12/09 06:50:06;;;;;;;44.97;15.65;;;;;;;2.37;100.00;96755.72;4917138;29;20031;-55
2021/12/09 06:52:32;;;;;;;45.13;16.05;;;;;;;2.13;100.00;96754.63;4930144;28;20537;-55
2021/12/09 06:54:57;;;;;;;41.22;15.43;;;;;;;2.16;100.00;96764.03;4915435;29;20036;-55
2021/12/09 06:57:22;;;;;;;39.50;14.68;;;;;;;2.39;100.00;96763.38;4916011;28;20155;-56
2021/12/09 06:59:48;;;;;;;32.67;13.52;;;;;;;2.27;100.00;96772.28;4918287;29;20111;-56
2021/12/09 07:02:13;;;;;;;36.50;13.55;;;;;;;2.23;100.00;96781.81;4915603;28;20395;-56
2021/12/09 07:04:38;;;;;;;34.63;14.10;;;;;;;2.31;100.00;96773.88;4916365;29;20038;-56
2021/12/09 07:07:04;;;;;;;31.58;12.60;;;;;;;2.44;100.00;96782.94;4913948;29;20036;-56
2021/12/09 07:09:30;;;;;;;32.90;12.27;;;;;;;2.63;100.00;96792.75;4914710;29;20031;-56
2021/12/09 07:11:59;;;;;;;37.53;14.60;;;;;;;2.28;100.00;96792.84;4913010;29;20040;-56
2021/12/09 07:14:24;;;;;;;40.47;14.27;;;;;;;2.56;100.00;96799.78;4914415;29;20098;-57
2021/12/09 07:16:50;;;;;;;36.47;15.52;;;;;;;2.16;100.00;96802.59;4915153;28;20047;-57
2021/12/09 07:19:15;;;;;;;37.80;14.95;;;;;;;2.47;100.00;96805.19;4912047;29;20478;-58
2021/12/09 07:21:41;;;;;;;38.80;14.80;;;;;;;2.47;100.00;96805.19;4915997;28;20147;-57
2021/12/09 07:24:06;;;;;;;36.03;14.95;;;;;;;2.56;100.00;96804.09;4915956;29;20046;-56
2021/12/09 07:26:32;;;;;;;34.42;13.90;;;;;;;2.62;100.00;96799.59;4914340;29;20048;-58
2021/12/09 07:28:58;;;;;;;34.88;14.07;;;;;;;2.60;100.00;96796.22;4915137;29;20039;-58
2021/12/09 07:31:24;;;;;;;37.75;15.45;;;;;;;2.39;100.00;96797.69;4913710;29;20052;-56
2021/12/09 07:33:51;;;;;;;32.72;13.85;;;;;;;2.59;100.00;96797.13;4912567;29;20036;-56
2021/12/09 07:36:16;;;;;;;46.05;17.70;;;;;;;2.63;100.00;96797.88;4914832;29;20048;-58
2021/12/09 07:38:41;;;;;;;46.15;16.85;;;;;;;2.60;100.00;96805.69;4916441;29;20094;-58
2021/12/09 07:41:07;;;;;;;47.50;19.52;;;;;;;2.84;100.00;96804.13;4917092;29;20071;-58
2021/12/09 07:43:33;;;;;;;38.88;15.85;;;;;;;2.61;100.00;96802.22;4913776;29;20031;-57
2021/12/09 07:45:59;;;;;;;42.33;15.25;;;;;;;2.69;100.00;96805.44;4913241;28;20128;-55
2021/12/09 07:48:24;;;;;;;36.47;14.43;;;;;;;2.58;100.00;96797.16;4917116;29;20032;-55
2021/12/09 07:50:50;;;;;;;38.13;14.05;;;;;;;2.72;100.00;96800.19;4914234;29;20051;-56
2021/12/09 07:53:17;;;;;;;37.28;13.77;;;;;;;2.61;100.00;96795.34;4914511;29;20099;-57
2021/12/09 07:55:43;;;;;;;37.17;13.95;;;;;;;2.74;100.00;96782.97;4915333;28;20115;-56
2021/12/09 07:58:08;;;;;;;39.33;14.23;;;;;;;2.59;100.00;96778.25;4915498;29;20087;-57
2021/12/09 08:00:34;;;;;;;40.58;13.60;;;;;;;2.54;100.00;96774.97;4913647;29;20040;-56
2021/12/09 08:03:01;;;;;;;35.15;14.25;;;;;;;2.50;100.00;96772.50;4915390;29;20035;-58
2021/12/09 08:05:29;;;;;;;37.55;13.85;;;;;;;2.44;100.00;96775.22;4911947;29;20044;-56
2021/12/09 08:07:55;;;;;;;32.25;13.52;;;;;;;2.51;100.00;96776.72;4913714;29;20119;-56
2021/12/09 08:10:22;;;;;;;36.47;13.45;;;;;;;2.41;100.00;96780.47;4919628;29;20036;-56
2021/12/09 08:12:48;;;;;;;35.38;13.10;;;;;;;2.32;100.00;96780.72;4916831;29;20059;-56
2021/12/09 08:15:16;;;;;;;37.35;13.93;;;;;;;2.69;100.00;96784.84;4912359;29;20060;-58
2021/12/09 08:20:14;;;;;;;36.53;13.95;;;;;;;2.39;100.00;96792.53;4913709;29;20036;-56
2021/12/09 08:22:41;;;;;;;33.50;12.80;;;;;;;2.54;100.00;96783.53;4913601;29;20040;-57
2021/12/09 08:25:08;;;;;;;37.08;13.40;;;;;;;2.74;100.00;96793.28;4913802;29;20040;-54
2021/12/09 08:27:35;;;;;;;32.38;13.88;;;;;;;2.50;100.00;96799.97;4914551;29;20688;-54
2021/12/09 08:30:02;;;;;;;41.00;14.13;;;;;;;2.63;100.00;96795.31;4913635;29;20036;-60
2021/12/09 08:32:28;;;;;;;44.97;14.77;;;;;;;2.61;100.00;96800.50;4920098;29;20150;-57
2021/12/09 08:34:54;;;;;;;40.35;14.65;;;;;;;2.82;100.00;96806.75;4910345;29;20620;-54
2021/12/09 08:37:20;;;;;;;46.03;14.77;;;;;;;3.28;100.00;96805.34;4914643;29;20041;-55
2021/12/09 08:39:45;;;;;;;37.15;14.32;;;;;;;3.27;100.00;96793.38;4915209;29;20032;-55
2021/12/09 08:42:11;;;;;;;38.67;15.00;;;;;;;3.51;100.00;96796.09;4913835;28;20961;-55
2021/12/09 08:44:36;;;;;;;40.97;16.05;;;;;;;3.20;100.00;96797.03;4913195;29;20529;-54
2021/12/09 08:47:02;;;;;;;34.35;14.15;;;;;;;3.39;100.00;96799.03;4914910;29;20067;-57
2021/12/09 08:49:28;;;;;;;37.38;14.25;;;;;;;3.44;100.00;96804.91;4915860;29;20154;-54
2021/12/09 08:51:53;;;;;;;44.85;14.73;;;;;;;3.47;100.00;96809.94;4924769;29;20040;-57
2021/12/09 08:54:19;;;;;;;39.05;14.50;;;;;;;3.40;100.00;96813.59;4918122;29;20067;-54
2021/12/09 08:56:50;;;;;;;35.20;14.10;;;;;;;3.77;100.00;96822.75;4920014;29;20044;-55
2021/12/09 08:59:16;;;;;;;36.55;14.10;;;;;;;3.76;100.00;96819.31;4919051;29;20880;-56
2021/12/09 09:01:42;;;;;;;34.70;14.40;;;;;;;3.46;100.00;96828.88;4917093;28;20744;-56
2021/12/09 09:04:08;;;;;;;35.42;13.50;;;;;;;3.60;100.00;96824.16;4919930;29;20031;-55
2021/12/09 09:06:34;;;;;;;39.42;14.75;;;;;;;3.62;100.00;96819.78;4916857;28;20107;-58
2021/12/09 09:09:01;;;;;;;38.85;14.52;;;;;;;3.60;100.00;96820.69;4917263;29;20587;-56
2021/12/09 09:11:26;;;;;;;36.42;13.95;;;;;;;3.76;100.00;96831.38;4917967;28;20043;-57
2021/12/09 09:13:51;;;;;;;39.80;14.38;;;;;;;3.49;100.00;96833.94;4917408;29;20034;-56
2021/12/09 09:16:17;;;;;;;34.83;12.25;;;;;;;3.79;100.00;96826.13;4914052;29;20553;-57
2021/12/09 09:18:43;;;;;;;36.17;13.13;;;;;;;3.59;100.00;96835.34;4917523;29;20024;-56
2021/12/09 09:21:08;;;;;;;39.63;14.02;;;;;;;3.42;100.00;96842.78;4920928;29;20040;-54
2021/12/09 09:23:34;;;;;;;43.15;13.45;;;;;;;3.74;100.00;96843.47;4918565;29;20047;-57
2021/12/09 09:26:00;;;;;;;34.90;13.60;;;;;;;3.85;100.00;96846.56;4924062;29;20530;-57
2021/12/09 09:28:27;;;;;;;40.85;14.07;;;;;;;3.77;100.00;96848.56;4916100;29;20032;-55
2021/12/09 09:30:53;;;;;;;40.38;13.52;;;;;;;3.57;100.00;96851.75;4916042;29;20098;-57
2021/12/09 09:33:22;;;;;;;42.15;15.65;;;;;;;3.83;100.00;96853.50;4916140;29;20027;-57
2021/12/09 09:35:48;;;;;;;41.78;15.52;;;;;;;4.03;100.00;96856.25;4916168;28;20821;-56
2021/12/09 09:38:15;;;;;;;40.90;14.50;;;;;;;3.81;100.00;96855.28;4915542;29;20538;-56
2021/12/09 09:40:59;;;;;;;37.83;15.20;;;;;;;3.69;100.00;96855.66;4916957;28;20036;-56
2021/12/09 09:43:43;;;;;;;39.17;14.95;;;;;;;3.95;100.00;96866.00;4917282;29;20623;-56
2021/12/09 09:46:11;;;;;;;43.00;15.00;;;;;;;3.74;100.00;96856.38;4916456;28;20344;-59
2021/12/09 09:48:38;;;;;;;46.40;15.10;;;;;;;3.63;100.00;96854.97;4915289;29;20036;-56
2021/12/09 09:51:06;;;;;;;39.72;14.05;;;;;;;3.89;100.00;96863.59;4915913;28;20118;-56
2021/12/09 09:53:33;;;;;;;43.42;14.48;;;;;;;3.67;100.00;96861.72;4914115;29;20058;-60
2021/12/09 09:55:58;;;;;;;36.45;13.77;;;;;;;3.78;100.00;96865.69;4922672;29;20115;-56
2021/12/09 09:58:25;;;;;;;40.67;14.35;;;;;;;3.67;100.00;96869.44;4918367;29;20111;-56
2021/12/09 10:00:51;;;;;;;42.35;14.75;;;;;;;3.65;100.00;96876.38;4915135;29;20467;-55
2021/12/09 10:03:17;;;;;;;38.85;14.55;;;;;;;3.87;100.00;96880.88;4919900;29;20493;-55
2021/12/09 10:05:48;;;;;;;42.70;14.30;;;;;;;3.92;100.00;96888.47;4914138;29;20044;-55
2021/12/09 10:08:15;;;;;;;39.40;14.95;;;;;;;3.81;100.00;96886.25;4917339;29;20105;-55
2021/12/09 10:10:42;;;;;;;47.33;15.93;;;;;;;3.73;100.00;96885.63;4914043;29;20769;-55
2021/12/09 10:13:10;;;;;;;43.38;15.68;;;;;;;3.89;100.00;96884.25;4917735;29;20493;-55
2021/12/09 10:15:39;;;;;;;46.95;15.05;;;;;;;3.65;100.00;96891.03;4915175;29;20835;-56
2021/12/09 10:18:06;;;;;;;43.78;15.10;;;;;;;3.88;100.00;96887.72;4915484;29;20043;-56
2021/12/09 10:20:47;;;;;;;43.60;14.07;;;;;;;3.99;100.00;96885.66;4915691;29;20028;-55
2021/12/09 10:23:38;;;;;;;43.72;15.30;;;;;;;3.58;100.00;96887.78;4918770;29;20027;-57
2021/12/09 10:26:20;;;;;;;45.55;15.05;;;;;;;3.91;100.00;96882.44;4916027;29;20076;-56
2021/12/09 10:29:02;;;;;;;42.85;14.85;;;;;;;3.58;100.00;96892.94;4916811;29;20502;-58
2021/12/09 10:31:34;;;;;;;43.28;15.60;;;;;;;3.68;100.00;96872.88;4918035;29;20099;-56
2021/12/09 10:34:08;;;;;;;44.88;14.75;;;;;;;3.91;100.00;96876.47;4919872;29;20027;-56
2021/12/09 10:36:40;;;;;;;41.90;15.30;;;;;;;3.77;100.00;96870.03;4915767;29;20044;-55
2021/12/09 10:39:20;;;;;;;41.30;15.23;;;;;;;3.69;100.00;96866.81;4922386;29;20024;-56
2021/12/09 10:41:46;;;;;;;38.17;14.45;;;;;;;3.78;100.00;96865.69;4916304;29;20094;-57
2021/12/09 10:44:12;;;;;;;37.05;15.63;;;;;;;3.70;100.00;96865.94;4917920;29;20036;-56
2021/12/09 10:46:57;;;;;;;39.13;15.13;;;;;;;4.03;100.00;96870.91;4917640;28;20576;-55
2021/12/09 10:49:23;;;;;;;41.30;15.25;;;;;;;3.80;100.00;96867.31;4918062;29;20560;-55
2021/12/09 10:51:59;;;;;;;35.38;14.57;;;;;;;3.86;100.00;96869.72;4914511;29;20054;-55
2021/12/09 10:54:34;;;;;;;39.22;15.70;;;;;;;3.66;100.00;96865.19;4913757;29;20790;-56
2021/12/09 10:57:26;;;;;;;37.67;15.82;;;;;;;4.07;100.00;96862.16;4916618;28;20497;-55
2021/12/09 10:59:52;;;;;;;38.13;15.57;;;;;;;4.21;100.00;96865.13;4918031;29;20494;-56
2021/12/09 11:02:17;;;;;;;34.08;14.63;;;;;;;4.13;100.00;96868.84;4914437;28;20313;-55
2021/12/09 11:05:05;;;;;;;40.75;15.93;;;;;;;4.08;100.00;96870.75;4917271;29;20057;-55
2021/12/09 11:07:31;;;;;;;42.88;15.73;;;;;;;4.09;100.00;96869.84;4923655;29;20056;-58
2021/12/09 11:10:14;;;;;;;38.92;14.98;;;;;;;4.14;100.00;96870.56;4915178;29;20031;-56
2021/12/09 11:12:48;;;;;;;35.75;15.73;;;;;;;4.42;100.00;96863.53;4914762;29;20111;-56
2021/12/09 11:15:13;;;;;;;32.92;15.52;;;;;;;4.51;100.00;96866.72;4916551;29;20028;-56
2021/12/09 11:17:42;;;;;;;37.38;15.48;;;;;;;4.48;100.00;96864.22;4913714;29;20027;-56
2021/12/09 11:20:07;;;;;;;33.88;14.98;;;;;;;4.49;100.00;96868.50;4913032;29;20481;-56
2021/12/09 11:22:37;;;;;;;38.42;15.95;;;;;;;4.59;100.00;96870.69;4912964;29;20816;-55